Time;durP1;ratioP1;P1;durP2;ratioP2;P2;SDS_P1;SDS_P2;PMS_P1;PMS_P2;Temp;Humidity;BMP_temperature;BMP_pressure;BME280_temperature;BME280_humidity;BME280_pressure;Samples;Min_cycle;Max_cycle;Signal;HPM_P1;HPM_P2
2023/12/20 00:01:59;;;;;;;5.80;1.10;;;;;;;;;;5057356;28;20020;-23
2023/12/20 00:04:25;;;;;;;1.77;1.15;;;;;;;;;;5057146;28;20029;-26
2023/12/20 00:06:52;;;;;;;1.65;1.10;;;;;;;;;;5057009;28;20440;-25
2023/12/20 00:09:18;;;;;;;1.13;0.73;;;;;;;;;;5057129;28;20356;-27
2023/12/20 00:11:44;;;;;;;1.67;1.05;;;;;;;;;;5056885;28;20021;-26
2023/12/20 00:14:10;;;;;;;2.85;0.90;;;;;;;;;;5056956;28;20021;-25
2023/12/20 00:16:36;;;;;;;5.15;1.13;;;;;;;;;;5056890;28;20405;-23
2023/12/20 00:19:02;;;;;;;2.00;1.08;;;;;;;;;;5056857;28;20071;-25
2023/12/20 00:21:28;;;;;;;2.85;1.00;;;;;;;;;;5055658;28;20097;-25
2023/12/20 00:23:55;;;;;;;1.73;1.00;;;;;;;;;;5057547;28;20033;-27
2023/12/20 00:26:21;;;;;;;7.05;3.63;;;;;;;;;;5056660;28;20104;-24
2023/12/20 00:28:47;;;;;;;1.80;1.00;;;;;;;;;;5056653;28;20021;-26
2023/12/20 00:31:14;;;;;;;1.88;0.90;;;;;;;;;;5056834;28;20021;-26
2023/12/20 00:33:43;;;;;;;1.55;0.98;;;;;;;;;;5056460;28;20136;-25
2023/12/20 00:36:09;;;;;;;1.17;1.08;;;;;;;;;;5056574;28;20028;-25
2023/12/20 00:38:35;;;;;;;2.92;1.92;;;;;;;;;;5056459;28;20478;-26
2023/12/20 00:41:02;;;;;;;1.38;1.02;;;;;;;;;;5056376;28;20029;-23
2023/12/20 00:43:28;;;;;;;3.00;1.00;;;;;;;;;;5056407;28;20051;-23
2023/12/20 00:45:55;;;;;;;2.00;1.65;;;;;;;;;;5056183;28;20028;-26
2023/12/20 00:48:21;;;;;;;1.10;1.00;;;;;;;;;;5056333;28;20031;-24
2023/12/20 00:50:47;;;;;;;1.00;1.00;;;;;;;;;;5056158;28;20017;-27
2023/12/20 00:53:14;;;;;;;0.98;0.80;;;;;;;;;;5056213;28;20028;-25
2023/12/20 00:55:40;;;;;;;4.75;0.90;;;;;;;;;;5056159;28;20025;-26
2023/12/20 00:58:06;;;;;;;1.83;1.02;;;;;;;;;;5056081;28;20059;-26
2023/12/20 01:00:33;;;;;;;1.48;0.80;;;;;;;;;;5056015;28;20033;-24
2023/12/20 01:02:59;;;;;;;3.60;1.33;;;;;;;;;;5055985;28;20036;-24
2023/12/20 01:05:25;;;;;;;4.13;2.13;;;;;;;;;;5056189;28;20029;-26
2023/12/20 01:07:51;;;;;;;2.20;1.27;;;;;;;;;;5055930;28;20368;-26
2023/12/20 01:10:17;;;;;;;5.28;1.83;;;;;;;;;;5055802;28;20029;-26
2023/12/20 01:12:44;;;;;;;3.50;1.20;;;;;;;;;;5055786;28;20078;-23
2023/12/20 01:15:10;;;;;;;1.63;1.15;;;;;;;;;;5056054;28;20356;-24
2023/12/20 01:17:36;;;;;;;2.80;0.90;;;;;;;;;;5055751;28;20036;-25
2023/12/20 01:20:03;;;;;;;2.58;1.55;;;;;;;;;;5055696;28;20342;-23
2023/12/20 01:22:29;;;;;;;6.18;2.35;;;;;;;;;;5055623;28;20017;-26
2023/12/20 01:24:55;;;;;;;2.13;1.20;;;;;;;;;;5055546;28;20055;-27
2023/12/20 01:27:21;;;;;;;3.97;0.90;;;;;;;;;;5055653;28;20099;-27
2023/12/20 01:29:48;;;;;;;1.75;1.13;;;;;;;;;;5055538;28;20021;-25
2023/12/20 01:32:14;;;;;;;3.30;1.05;;;;;;;;;;5055281;28;20098;-25
2023/12/20 01:34:40;;;;;;;1.52;0.90;;;;;;;;;;5055417;28;20025;-24
2023/12/20 01:37:07;;;;;;;2.25;1.02;;;;;;;;;;5055374;28;20063;-23
2023/12/20 01:39:33;;;;;;;1.63;1.30;;;;;;;;;;5055341;28;20017;-27
2023/12/20 01:41:59;;;;;;;1.55;1.40;;;;;;;;;;5055325;28;20083;-25
2023/12/20 01:44:25;;;;;;;2.13;1.42;;;;;;;;;;5055278;28;20017;-27
2023/12/20 01:46:51;;;;;;;2.42;1.17;;;;;;;;;;5055119;28;20025;-25
2023/12/20 01:49:18;;;;;;;4.55;1.40;;;;;;;;;;5055215;28;20047;-25
2023/12/20 01:51:44;;;;;;;2.97;0.95;;;;;;;;;;5055090;28;20096;-23
2023/12/20 01:54:10;;;;;;;2.55;1.00;;;;;;;;;;5055131;28;20408;-25
2023/12/20 01:56:36;;;;;;;1.75;1.00;;;;;;;;;;5055015;28;20044;-26
2023/12/20 01:59:04;;;;;;;1.30;0.93;;;;;;;;;;5055005;28;20142;-27
2023/12/20 02:01:31;;;;;;;1.10;1.00;;;;;;;;;;5055157;28;20033;-25
2023/12/20 02:03:57;;;;;;;3.35;1.30;;;;;;;;;;5054911;28;20058;-26
2023/12/20 02:06:24;;;;;;;1.23;0.90;;;;;;;;;;5054807;28;20135;-27
2023/12/20 02:08:50;;;;;;;3.20;1.20;;;;;;;;;;5055146;28;20016;-27
2023/12/20 02:11:17;;;;;;;1.40;1.20;;;;;;;;;;5054746;28;20104;-26
2023/12/20 02:13:43;;;;;;;2.25;1.45;;;;;;;;;;5054758;28;20032;-26
2023/12/20 02:16:09;;;;;;;1.38;1.05;;;;;;;;;;5054750;28;20029;-26
2023/12/20 02:18:35;;;;;;;1.98;1.25;;;;;;;;;;5054981;28;20025;-23
2023/12/20 02:21:01;;;;;;;1.30;1.00;;;;;;;;;;5054908;28;20448;-23
2023/12/20 02:23:27;;;;;;;2.75;1.90;;;;;;;;;;5054624;28;20040;-23
2023/12/20 02:25:53;;;;;;;2.03;0.90;;;;;;;;;;5054529;28;20025;-26
2023/12/20 02:28:21;;;;;;;3.10;0.90;;;;;;;;;;5054584;28;20021;-25
2023/12/20 02:30:47;;;;;;;1.73;1.33;;;;;;;;;;5054721;28;20321;-26
2023/12/20 02:33:14;;;;;;;1.52;1.00;;;;;;;;;;5054402;28;20383;-26
2023/12/20 02:35:40;;;;;;;3.92;2.03;;;;;;;;;;5054496;28;20036;-26
2023/12/20 02:38:07;;;;;;;1.33;0.93;;;;;;;;;;5054450;28;20025;-26
2023/12/20 02:40:33;;;;;;;3.03;0.90;;;;;;;;;;5054387;28;20028;-26
2023/12/20 02:42:59;;;;;;;1.30;1.20;;;;;;;;;;5054725;28;20036;-24
2023/12/20 02:45:26;;;;;;;2.28;1.45;;;;;;;;;;5056589;28;20039;-23
2023/12/20 02:47:52;;;;;;;1.17;0.95;;;;;;;;;;5058944;28;20039;-25
2023/12/20 02:50:18;;;;;;;1.80;1.00;;;;;;;;;;5058452;28;20036;-24
2023/12/20 02:52:47;;;;;;;1.50;1.00;;;;;;;;;;5058436;28;20036;-25
2023/12/20 02:55:13;;;;;;;2.30;1.15;;;;;;;;;;5058414;28;20360;-24
2023/12/20 02:57:41;;;;;;;1.48;1.10;;;;;;;;;;5058366;28;20029;-23
2023/12/20 03:00:10;;;;;;;2.35;1.10;;;;;;;;;;5058630;28;20456;-24
2023/12/20 03:02:36;;;;;;;2.42;1.70;;;;;;;;;;5058203;28;20040;-26
2023/12/20 03:05:03;;;;;;;1.00;0.90;;;;;;;;;;5058173;28;20113;-25
2023/12/20 03:07:29;;;;;;;3.17;1.40;;;;;;;;;;5058205;28;20074;-25
2023/12/20 03:09:55;;;;;;;1.05;0.80;;;;;;;;;;5058174;28;20056;-24
2023/12/20 03:12:21;;;;;;;1.70;1.05;;;;;;;;;;5058072;28;20025;-24
2023/12/20 03:14:48;;;;;;;2.22;1.30;;;;;;;;;;5058370;28;20017;-24
2023/12/20 03:17:15;;;;;;;2.03;1.27;;;;;;;;;;5058348;28;20356;-25
2023/12/20 03:19:41;;;;;;;2.25;0.90;;;;;;;;;;5058251;28;20028;-27
2023/12/20 03:22:07;;;;;;;3.15;1.02;;;;;;;;;;5057873;28;20021;-26
2023/12/20 03:24:33;;;;;;;2.28;1.05;;;;;;;;;;5058174;28;20359;-27
2023/12/20 03:26:59;;;;;;;1.70;0.82;;;;;;;;;;5058351;28;20498;-26
2023/12/20 03:29:25;;;;;;;1.40;0.98;;;;;;;;;;5058059;28;20079;-24
2023/12/20 03:31:51;;;;;;;1.67;0.93;;;;;;;;;;5057509;28;20082;-22
2023/12/20 03:34:17;;;;;;;2.58;1.50;;;;;;;;;;5058034;28;20044;-24
2023/12/20 03:36:43;;;;;;;1.60;1.05;;;;;;;;;;5056722;28;20025;-26
2023/12/20 03:39:10;;;;;;;2.75;1.48;;;;;;;;;;5057910;28;20025;-25
2023/12/20 03:41:36;;;;;;;1.83;1.35;;;;;;;;;;5057629;28;20108;-27
2023/12/20 03:44:02;;;;;;;1.80;0.95;;;;;;;;;;5057774;28;20367;-25
2023/12/20 03:46:28;;;;;;;1.60;1.05;;;;;;;;;;5057695;28;20100;-24
2023/12/20 03:48:54;;;;;;;2.67;1.10;;;;;;;;;;5057980;28;20040;-23
2023/12/20 03:51:20;;;;;;;2.47;1.20;;;;;;;;;;5057490;28;20020;-24
2023/12/20 03:53:46;;;;;;;1.23;0.90;;;;;;;;;;5057590;28;20044;-26
2023/12/20 03:56:12;;;;;;;1.20;0.95;;;;;;;;;;5057786;28;20044;-26
2023/12/20 03:58:39;;;;;;;2.22;1.27;;;;;;;;;;5057253;28;20021;-26
2023/12/20 04:01:11;;;;;;;2.20;1.65;;;;;;;;;;5057449;28;20098;-24
2023/12/20 04:03:37;;;;;;;1.35;0.80;;;;;;;;;;5057483;28;20032;-26
2023/12/20 04:06:03;;;;;;;6.50;1.73;;;;;;;;;;5057044;28;20104;-24
2023/12/20 04:08:29;;;;;;;2.13;1.25;;;;;;;;;;5057357;28;20032;-23
2023/12/20 04:10:55;;;;;;;2.45;1.15;;;;;;;;;;5057218;28;20036;-23
2023/12/20 04:13:21;;;;;;;2.38;1.00;;;;;;;;;;5057009;28;20098;-26
2023/12/20 04:15:50;;;;;;;2.28;1.58;;;;;;;;;;5057215;28;20031;-27
2023/12/20 04:18:16;;;;;;;4.20;1.60;;;;;;;;;;5056912;28;20025;-23
2023/12/20 04:20:42;;;;;;;4.68;1.70;;;;;;;;;;5056727;28;20025;-26
2023/12/20 04:23:08;;;;;;;5.35;1.88;;;;;;;;;;5056845;28;20099;-27
2023/12/20 04:25:36;;;;;;;2.72;1.30;;;;;;;;;;5056678;28;20029;-26
2023/12/20 04:28:02;;;;;;;7.35;2.15;;;;;;;;;;5056710;28;20341;-23
2023/12/20 04:30:28;;;;;;;8.43;2.00;;;;;;;;;;5056884;28;20364;-26
2023/12/20 04:32:55;;;;;;;3.05;1.83;;;;;;;;;;5056377;28;20045;-25
2023/12/20 04:35:21;;;;;;;9.82;2.35;;;;;;;;;;5056575;28;20036;-24
2023/12/20 04:37:49;;;;;;;6.38;1.85;;;;;;;;;;5056490;28;20029;-24
2023/12/20 04:40:15;;;;;;;8.45;1.88;;;;;;;;;;5056665;28;20040;-23
2023/12/20 04:42:41;;;;;;;4.18;1.30;;;;;;;;;;5056655;28;20032;-24
2023/12/20 04:45:07;;;;;;;2.70;1.10;;;;;;;;;;5056316;28;20033;-24
2023/12/20 04:47:34;;;;;;;6.75;2.22;;;;;;;;;;5056580;28;20047;-26
2023/12/20 04:50:00;;;;;;;2.15;1.75;;;;;;;;;;5056565;28;20052;-26
2023/12/20 04:52:26;;;;;;;2.53;1.10;;;;;;;;;;5056961;28;20112;-26
2023/12/20 04:54:52;;;;;;;1.30;1.20;;;;;;;;;;5056159;28;20083;-25
2023/12/20 04:57:19;;;;;;;3.47;1.80;;;;;;;;;;5056103;28;20499;-26
2023/12/20 04:59:45;;;;;;;2.67;1.00;;;;;;;;;;5056028;28;20029;-24
2023/12/20 05:02:11;;;;;;;2.97;1.63;;;;;;;;;;5056781;28;20021;-23
2023/12/20 05:04:38;;;;;;;2.58;1.15;;;;;;;;;;5055912;28;20100;-24
2023/12/20 05:07:04;;;;;;;3.45;1.20;;;;;;;;;;5055493;28;20075;-25
2023/12/20 05:09:31;;;;;;;1.67;0.93;;;;;;;;;;5055516;28;20363;-26
2023/12/20 05:11:57;;;;;;;3.75;1.55;;;;;;;;;;5055616;28;20025;-26
2023/12/20 05:14:24;;;;;;;3.20;1.27;;;;;;;;;;5055564;28;20070;-26
2023/12/20 05:16:50;;;;;;;4.18;1.73;;;;;;;;;;5055857;28;20060;-26
2023/12/20 05:19:16;;;;;;;2.63;1.48;;;;;;;;;;5055800;28;20048;-25
2023/12/20 05:21:43;;;;;;;1.20;1.00;;;;;;;;;;5055449;28;20400;-24
2023/12/20 05:24:09;;;;;;;1.63;1.35;;;;;;;;;;5055702;28;20444;-24
2023/12/20 05:26:35;;;;;;;4.88;1.35;;;;;;;;;;5055334;28;20060;-26
2023/12/20 05:29:01;;;;;;;3.33;1.42;;;;;;;;;;5055309;28;20021;-26
2023/12/20 05:31:27;;;;;;;1.63;1.08;;;;;;;;;;5055364;28;20029;-27
2023/12/20 05:33:53;;;;;;;3.97;1.10;;;;;;;;;;5055074;28;20056;-23
2023/12/20 05:36:20;;;;;;;3.28;1.05;;;;;;;;;;5055519;28;20036;-22
2023/12/20 05:38:46;;;;;;;2.80;1.00;;;;;;;;;;5055508;28;20106;-23
2023/12/20 05:41:12;;;;;;;2.67;1.10;;;;;;;;;;5055123;28;20411;-26
2023/12/20 05:43:38;;;;;;;1.90;1.38;;;;;;;;;;5055390;28;20086;-26
2023/12/20 05:46:04;;;;;;;3.53;1.48;;;;;;;;;;5055264;28;20033;-26
2023/12/20 05:48:30;;;;;;;2.25;1.13;;;;;;;;;;5055006;28;20437;-25
2023/12/20 05:50:56;;;;;;;3.22;1.70;;;;;;;;;;5054826;28;20056;-25
2023/12/20 05:53:23;;;;;;;2.05;1.83;;;;;;;;;;5055055;28;20154;-25
2023/12/20 05:55:49;;;;;;;3.30;1.20;;;;;;;;;;5054854;28;20051;-23
2023/12/20 05:58:16;;;;;;;1.80;1.30;;;;;;;;;;5054819;28;20033;-23
2023/12/20 06:00:42;;;;;;;3.70;1.98;;;;;;;;;;5054895;28;20024;-26
2023/12/20 06:03:08;;;;;;;1.80;1.08;;;;;;;;;;5054589;28;20036;-28
2023/12/20 06:05:34;;;;;;;2.45;1.50;;;;;;;;;;5054630;28;20360;-26
2023/12/20 06:08:02;;;;;;;2.00;1.40;;;;;;;;;;5053634;28;20039;-25
2023/12/20 06:10:29;;;;;;;3.38;1.35;;;;;;;;;;5054747;28;20364;-25
2023/12/20 06:12:56;;;;;;;1.80;1.30;;;;;;;;;;5054474;28;20044;-26
2023/12/20 06:15:23;;;;;;;3.83;1.80;;;;;;;;;;5054740;28;20025;-26
2023/12/20 06:17:49;;;;;;;2.50;1.70;;;;;;;;;;5055181;28;20059;-27
2023/12/20 06:20:15;;;;;;;1.73;1.63;;;;;;;;;;5053411;28;20029;-27
2023/12/20 06:22:41;;;;;;;4.00;1.40;;;;;;;;;;5054353;28;20029;-27
2023/12/20 06:25:08;;;;;;;4.10;1.52;;;;;;;;;;5054522;28;20025;-27
2023/12/20 06:27:34;;;;;;;2.60;1.17;;;;;;;;;;5054300;28;20045;-25
2023/12/20 06:30:00;;;;;;;2.08;1.17;;;;;;;;;;5054244;28;20052;-26
2023/12/20 06:32:28;;;;;;;2.72;0.88;;;;;;;;;;5053923;28;20041;-24
2023/12/20 06:34:55;;;;;;;2.58;1.50;;;;;;;;;;5054209;28;20402;-27
2023/12/20 06:37:21;;;;;;;2.67;1.50;;;;;;;;;;5054171;28;20024;-26
2023/12/20 06:39:47;;;;;;;3.25;1.50;;;;;;;;;;5054357;28;20032;-23
2023/12/20 06:42:13;;;;;;;3.28;1.48;;;;;;;;;;5054104;28;20032;-24
2023/12/20 06:44:40;;;;;;;2.90;1.27;;;;;;;;;;5054129;28;20376;-25
2023/12/20 06:47:06;;;;;;;1.77;1.20;;;;;;;;;;5053988;28;20025;-27
2023/12/20 06:49:32;;;;;;;2.10;1.52;;;;;;;;;;5054030;28;20456;-26
2023/12/20 06:51:58;;;;;;;3.63;1.60;;;;;;;;;;5054278;28;20345;-25
2023/12/20 06:54:24;;;;;;;2.65;1.42;;;;;;;;;;5054025;28;20040;-26
2023/12/20 06:56:50;;;;;;;4.38;1.73;;;;;;;;;;5054053;28;20025;-23
2023/12/20 06:59:16;;;;;;;4.55;1.60;;;;;;;;;;5054062;28;20030;-23
2023/12/20 07:01:43;;;;;;;2.25;1.33;;;;;;;;;;5053882;28;20033;-24
2023/12/20 07:04:09;;;;;;;8.52;2.00;;;;;;;;;;5054127;28;20104;-26
2023/12/20 07:06:35;;;;;;;3.10;1.63;;;;;;;;;;5054029;28;20029;-27
2023/12/20 07:09:01;;;;;;;3.75;2.17;;;;;;;;;;5053869;28;20074;-26
2023/12/20 07:11:27;;;;;;;1.83;1.42;;;;;;;;;;5054044;28;20023;-27
2023/12/20 07:13:54;;;;;;;2.50;2.00;;;;;;;;;;5053757;28;20035;-25
2023/12/20 07:16:20;;;;;;;2.50;2.22;;;;;;;;;;5053837;28;20452;-25
2023/12/20 07:18:47;;;;;;;2.15;1.60;;;;;;;;;;5054022;28;20036;-27
2023/12/20 07:21:13;;;;;;;3.78;1.20;;;;;;;;;;5053919;28;20483;-26
2023/12/20 07:23:39;;;;;;;3.88;1.38;;;;;;;;;;5053781;28;20036;-26
2023/12/20 07:26:05;;;;;;;2.65;1.42;;;;;;;;;;5053852;28;20032;-25
2023/12/20 07:28:31;;;;;;;4.78;1.65;;;;;;;;;;5053758;28;20025;-26
2023/12/20 07:30:57;;;;;;;5.75;2.10;;;;;;;;;;5054937;28;20040;-23
2023/12/20 07:33:24;;;;;;;6.65;1.77;;;;;;;;;;5057238;28;20068;-26
2023/12/20 07:35:51;;;;;;;4.03;1.88;;;;;;;;;;5057353;28;20021;-26
2023/12/20 07:38:17;;;;;;;8.48;3.92;;;;;;;;;;5057354;28;20039;-23
2023/12/20 07:40:43;;;;;;;4.18;1.75;;;;;;;;;;5057224;28;20111;-27
2023/12/20 07:43:10;;;;;;;3.10;1.67;;;;;;;;;;5057271;28;20102;-27
2023/12/20 07:45:36;;;;;;;6.25;2.40;;;;;;;;;;5057050;28;20470;-26
2023/12/20 07:48:02;;;;;;;5.82;2.33;;;;;;;;;;5057176;28;20029;-26
2023/12/20 07:50:28;;;;;;;5.20;1.80;;;;;;;;;;5057000;28;20083;-24
2023/12/20 07:52:54;;;;;;;6.07;1.95;;;;;;;;;;5057554;28;20317;-23
2023/12/20 07:55:21;;;;;;;3.63;1.70;;;;;;;;;;5057268;28;20112;-26
2023/12/20 07:57:47;;;;;;;4.40;2.13;;;;;;;;;;5057049;28;20029;-28
2023/12/20 08:00:13;;;;;;;4.43;1.70;;;;;;;;;;5057009;28;20464;-26
2023/12/20 08:02:39;;;;;;;3.13;1.65;;;;;;;;;;5057007;28;20032;-27
2023/12/20 08:05:06;;;;;;;4.13;1.67;;;;;;;;;;5056869;28;20027;-26
2023/12/20 08:07:32;;;;;;;5.40;2.13;;;;;;;;;;5057047;28;20411;-24
2023/12/20 08:09:58;;;;;;;8.48;2.28;;;;;;;;;;5056979;28;20478;-24
2023/12/20 08:12:27;;;;;;;4.68;1.80;;;;;;;;;;5056862;28;20021;-25
2023/12/20 08:14:53;;;;;;;2.20;1.60;;;;;;;;;;5057218;28;20041;-24
2023/12/20 08:17:20;;;;;;;2.33;1.50;;;;;;;;;;5056799;28;20032;-25
2023/12/20 08:19:46;;;;;;;4.43;1.50;;;;;;;;;;5056948;28;20096;-23
2023/12/20 08:22:12;;;;;;;7.00;2.42;;;;;;;;;;5056638;28;20033;-23
2023/12/20 08:24:38;;;;;;;2.67;1.63;;;;;;;;;;5056565;28;20468;-26
2023/12/20 08:27:05;;;;;;;6.68;1.80;;;;;;;;;;5056686;28;20448;-27
2023/12/20 08:29:31;;;;;;;4.47;2.10;;;;;;;;;;5056412;28;20040;-28
2023/12/20 08:31:57;;;;;;;5.13;2.13;;;;;;;;;;5056765;28;20059;-25
2023/12/20 08:34:24;;;;;;;3.33;1.20;;;;;;;;;;5056607;28;20021;-26
2023/12/20 08:36:53;;;;;;;6.07;1.90;;;;;;;;;;5056332;28;20087;-26
2023/12/20 08:39:19;;;;;;;2.92;1.70;;;;;;;;;;5056368;28;20029;-27
2023/12/20 08:41:45;;;;;;;8.73;1.92;;;;;;;;;;5055669;28;20067;-26
2023/12/20 08:44:11;;;;;;;5.57;1.75;;;;;;;;;;5055392;28;20075;-26
2023/12/20 08:46:38;;;;;;;6.60;1.88;;;;;;;;;;5056203;28;20107;-26
2023/12/20 08:49:04;;;;;;;4.45;2.17;;;;;;;;;;5056430;28;20021;-26
2023/12/20 08:51:31;;;;;;;6.60;2.20;;;;;;;;;;5056093;28;20056;-24
2023/12/20 08:53:57;;;;;;;6.03;1.75;;;;;;;;;;5056123;28;20032;-23
2023/12/20 08:56:23;;;;;;;3.38;1.80;;;;;;;;;;5056260;28;20028;-26
2023/12/20 08:58:49;;;;;;;5.75;1.90;;;;;;;;;;5056550;28;20021;-29
2023/12/20 09:01:15;;;;;;;3.05;1.85;;;;;;;;;;5055964;28;20436;-26
2023/12/20 09:03:42;;;;;;;3.67;2.17;;;;;;;;;;5055914;28;20079;-26
2023/12/20 09:06:08;;;;;;;3.78;2.22;;;;;;;;;;5055712;28;20067;-26
2023/12/20 09:08:34;;;;;;;7.95;2.05;;;;;;;;;;5055823;28;20021;-24
2023/12/20 09:11:00;;;;;;;4.70;2.20;;;;;;;;;;5055967;28;20024;-24
2023/12/20 09:13:28;;;;;;;3.83;1.77;;;;;;;;;;5055607;28;20021;-24
2023/12/20 09:15:57;;;;;;;4.63;1.60;;;;;;;;;;5055568;28;20090;-25
2023/12/20 09:18:23;;;;;;;2.05;1.40;;;;;;;;;;5056382;28;20033;-26
2023/12/20 09:20:49;;;;;;;2.42;1.55;;;;;;;;;;5055571;28;20466;-26
2023/12/20 09:23:16;;;;;;;5.38;1.70;;;;;;;;;;5055551;28;20032;-26
2023/12/20 09:25:43;;;;;;;3.78;1.48;;;;;;;;;;5055625;28;20039;-25
2023/12/20 09:28:09;;;;;;;2.90;1.88;;;;;;;;;;5055775;28;20017;-26
2023/12/20 09:30:39;;;;;;;2.88;1.80;;;;;;;;;;5055253;28;20024;-24
2023/12/20 09:33:07;;;;;;;4.88;2.00;;;;;;;;;;5055131;28;20045;-25
2023/12/20 09:35:33;;;;;;;4.68;2.28;;;;;;;;;;5055479;28;20394;-25
2023/12/20 09:37:59;;;;;;;4.60;1.30;;;;;;;;;;5055426;28;20063;-27
2023/12/20 09:40:26;;;;;;;3.83;1.42;;;;;;;;;;5055281;28;20067;-25
2023/12/20 09:43:02;;;;;;;4.85;1.70;;;;;;;;;;5054935;28;20033;-26
2023/12/20 09:45:28;;;;;;;3.28;2.20;;;;;;;;;;5055293;28;20021;-26
2023/12/20 09:47:54;;;;;;;3.10;1.63;;;;;;;;;;5055061;28;20044;-25
2023/12/20 09:50:21;;;;;;;4.85;2.78;;;;;;;;;;5054698;28;20043;-24
2023/12/20 09:52:51;;;;;;;5.82;1.77;;;;;;;;;;5054981;28;20024;-26
2023/12/20 09:55:19;;;;;;;4.80;1.67;;;;;;;;;;5054861;28;20021;-27
2023/12/20 09:57:45;;;;;;;5.80;1.80;;;;;;;;;;5054580;28;20108;-25
2023/12/20 10:00:11;;;;;;;6.78;2.33;;;;;;;;;;5054935;28;20367;-26
2023/12/20 10:02:39;;;;;;;6.57;2.10;;;;;;;;;;5054502;28;20025;-26
2023/12/20 10:05:08;;;;;;;5.45;2.00;;;;;;;;;;5054445;28;20035;-26
2023/12/20 10:07:35;;;;;;;5.93;2.17;;;;;;;;;;5054485;28;20025;-25
2023/12/20 10:10:02;;;;;;;5.50;2.05;;;;;;;;;;5054408;28;20021;-24
2023/12/20 10:12:28;;;;;;;6.40;3.22;;;;;;;;;;5054567;28;20392;-24
2023/12/20 10:14:54;;;;;;;8.65;1.92;;;;;;;;;;5054647;28;20021;-25
2023/12/20 10:17:23;;;;;;;4.50;1.83;;;;;;;;;;5054591;28;20025;-26
2023/12/20 10:19:49;;;;;;;8.15;2.08;;;;;;;;;;5054264;28;20063;-25
2023/12/20 10:22:15;;;;;;;2.50;1.75;;;;;;;;;;5054254;28;20028;-26
2023/12/20 10:24:42;;;;;;;8.30;2.83;;;;;;;;;;5054552;28;20051;-27
2023/12/20 10:27:08;;;;;;;5.18;2.10;;;;;;;;;;5054254;28;20029;-26
2023/12/20 10:29:36;;;;;;;5.63;2.55;;;;;;;;;;5054437;28;20127;-26
2023/12/20 10:32:20;;;;;;;8.80;3.95;;;;;;;;;;5054154;28;20037;-27
2023/12/20 10:34:47;;;;;;;9.48;3.53;;;;;;;;;;5054503;28;20383;-25
2023/12/20 10:37:13;;;;;;;8.90;2.25;;;;;;;;;;5054271;28;20036;-25
2023/12/20 10:39:39;;;;;;;9.30;2.90;;;;;;;;;;5054243;28;20025;-25
2023/12/20 10:42:06;;;;;;;10.02;2.58;;;;;;;;;;5054127;28;20356;-27
2023/12/20 10:44:32;;;;;;;11.13;2.30;;;;;;;;;;5054489;28;20410;-26
2023/12/20 10:46:59;;;;;;;10.43;2.25;;;;;;;;;;5054109;28;20051;-28
2023/12/20 10:49:27;;;;;;;6.47;2.20;;;;;;;;;;5054140;28;20028;-27
2023/12/20 10:51:57;;;;;;;10.45;3.25;;;;;;;;;;5054095;28;20025;-26
2023/12/20 10:54:23;;;;;;;9.18;2.22;;;;;;;;;;5054244;28;20048;-27
2023/12/20 10:56:50;;;;;;;9.02;2.63;;;;;;;;;;5054110;28;20036;-26
2023/12/20 10:59:21;;;;;;;10.65;2.45;;;;;;;;;;5053476;28;20360;-27
2023/12/20 11:01:47;;;;;;;;;;;;;;;;;;5054247;28;20025;-26
2023/12/20 11:04:16;;;;;;;5.75;2.63;;;;;;;;;;5053081;28;19987;-25
2023/12/20 11:06:52;;;;;;;8.50;2.47;;;;;;;;;;5056218;28;20068;-28
2023/12/20 11:09:27;;;;;;;5.07;2.30;;;;;;;;;;5057979;28;20029;-24
2023/12/20 11:12:02;;;;;;;5.40;1.85;;;;;;;;;;5057864;28;20024;-26
2023/12/20 11:14:32;;;;;;;6.70;1.90;;;;;;;;;;5058170;28;20348;-26
2023/12/20 11:17:13;;;;;;;6.55;2.42;;;;;;;;;;5058194;28;20063;-25
2023/12/20 11:20:12;;;;;;;4.65;2.13;;;;;;;;;;5058079;28;20057;-26
2023/12/20 11:22:41;;;;;;;5.35;2.88;;;;;;;;;;5046153;28;20419;-25
2023/12/20 11:25:11;;;;;;;6.40;1.98;;;;;;;;;;5057700;28;20451;-25
2023/12/20 11:27:41;;;;;;;8.27;1.88;;;;;;;;;;5057673;28;20033;-24
2023/12/20 11:30:08;;;;;;;7.05;2.53;;;;;;;;;;5057568;28;20032;-26
2023/12/20 11:32:35;;;;;;;11.02;2.35;;;;;;;;;;5057181;28;20037;-28
2023/12/20 11:35:18;;;;;;;8.77;2.30;;;;;;;;;;5057237;28;20060;-26
2023/12/20 11:37:47;;;;;;;9.30;2.28;;;;;;;;;;5057337;28;20231;-27
2023/12/20 11:40:17;;;;;;;4.70;2.60;;;;;;;;;;5057756;28;20029;-24
2023/12/20 11:42:49;;;;;;;11.77;2.20;;;;;;;;;;5057276;28;20021;-28
2023/12/20 11:45:16;;;;;;;7.43;2.05;;;;;;;;;;5057263;28;20032;-27
2023/12/20 11:47:55;;;;;;;4.68;1.90;;;;;;;;;;5057598;28;20074;-26
2023/12/20 11:50:23;;;;;;;8.90;1.90;;;;;;;;;;5057429;28;20032;-26
2023/12/20 11:52:49;;;;;;;3.95;1.80;;;;;;;;;;5057156;28;20105;-25
2023/12/20 11:55:16;;;;;;;4.45;2.63;;;;;;;;;;5057051;28;20029;-24
2023/12/20 11:57:42;;;;;;;8.40;2.15;;;;;;;;;;5057313;28;20432;-25
2023/12/20 12:00:09;;;;;;;7.82;2.40;;;;;;;;;;5057012;28;20017;-25
2023/12/20 12:02:35;;;;;;;8.10;2.58;;;;;;;;;;5056945;28;20025;-27
2023/12/20 12:05:01;;;;;;;8.18;1.95;;;;;;;;;;5056891;28;20044;-26
2023/12/20 12:07:27;;;;;;;4.85;2.15;;;;;;;;;;5056830;28;20074;-27
2023/12/20 12:09:53;;;;;;;11.15;2.65;;;;;;;;;;5056836;28;20028;-26
2023/12/20 12:12:20;;;;;;;3.75;1.90;;;;;;;;;;5056680;28;20047;-26
2023/12/20 12:14:46;;;;;;;5.55;2.00;;;;;;;;;;5056767;28;20021;-25
2023/12/20 12:17:13;;;;;;;3.92;1.80;;;;;;;;;;5055683;28;20090;-27
2023/12/20 12:19:40;;;;;;;6.78;2.13;;;;;;;;;;5056539;28;20024;-26
2023/12/20 12:22:13;;;;;;;10.23;1.92;;;;;;;;;;5056512;28;20462;-24
2023/12/20 12:24:40;;;;;;;3.63;1.90;;;;;;;;;;5056812;28;20025;-24
2023/12/20 12:27:07;;;;;;;3.83;2.38;;;;;;;;;;5056785;28;20029;-25
2023/12/20 12:29:33;;;;;;;6.32;1.90;;;;;;;;;;5056762;28;20463;-24
2023/12/20 12:32:00;;;;;;;3.45;1.77;;;;;;;;;;5056184;28;20041;-26
2023/12/20 12:34:28;;;;;;;5.35;1.60;;;;;;;;;;5056778;28;20032;-26
2023/12/20 12:36:54;;;;;;;2.55;1.77;;;;;;;;;;5056692;28;20029;-24
2023/12/20 12:39:20;;;;;;;4.57;1.70;;;;;;;;;;5056352;28;20037;-24
2023/12/20 12:41:47;;;;;;;3.55;1.90;;;;;;;;;;5056224;28;20100;-28
2023/12/20 12:44:13;;;;;;;3.85;1.85;;;;;;;;;;5056554;28;20053;-27
2023/12/20 12:46:40;;;;;;;3.03;1.85;;;;;;;;;;5056230;28;20021;-26
2023/12/20 12:49:06;;;;;;;6.95;2.22;;;;;;;;;;5056467;28;20100;-25
2023/12/20 12:51:32;;;;;;;4.25;2.05;;;;;;;;;;5056326;28;20448;-26
2023/12/20 12:53:58;;;;;;;5.75;1.77;;;;;;;;;;5056161;28;20460;-23
2023/12/20 12:56:24;;;;;;;4.97;2.58;;;;;;;;;;5055973;28;20040;-25
2023/12/20 12:58:50;;;;;;;4.60;2.47;;;;;;;;;;5056268;28;20087;-26
2023/12/20 13:01:17;;;;;;;3.83;1.77;;;;;;;;;;5055871;28;20463;-26
2023/12/20 13:03:43;;;;;;;5.00;1.83;;;;;;;;;;5056019;28;20041;-25
2023/12/20 13:06:09;;;;;;;2.60;1.60;;;;;;;;;;5055701;28;20096;-24
2023/12/20 13:08:35;;;;;;;3.78;2.38;;;;;;;;;;5056008;28;20329;-26
2023/12/20 13:11:04;;;;;;;6.75;1.80;;;;;;;;;;5055672;28;20022;-25
2023/12/20 13:13:30;;;;;;;2.20;1.63;;;;;;;;;;5055905;28;20017;-24
2023/12/20 13:15:56;;;;;;;1.55;1.30;;;;;;;;;;5055786;28;20028;-23
2023/12/20 13:18:26;;;;;;;5.20;1.63;;;;;;;;;;5055464;28;20040;-24
2023/12/20 13:20:52;;;;;;;4.25;1.63;;;;;;;;;;5055299;28;20035;-26
2023/12/20 13:23:18;;;;;;;7.05;3.53;;;;;;;;;;5055331;28;20049;-27
2023/12/20 13:25:47;;;;;;;6.07;3.00;;;;;;;;;;5055176;28;20029;-28
2023/12/20 13:28:13;;;;;;;4.00;1.90;;;;;;;;;;5054927;28;20032;-26
2023/12/20 13:30:40;;;;;;;4.40;1.60;;;;;;;;;;5055421;28;20017;-26
2023/12/20 13:33:06;;;;;;;3.13;1.35;;;;;;;;;;5055042;28;20037;-26
2023/12/20 13:35:33;;;;;;;7.97;1.80;;;;;;;;;;5055104;28;20025;-26
2023/12/20 13:37:59;;;;;;;3.47;1.77;;;;;;;;;;5055369;28;20355;-27
2023/12/20 13:40:25;;;;;;;6.15;1.45;;;;;;;;;;5055190;28;20025;-27
2023/12/20 13:42:51;;;;;;;4.15;2.05;;;;;;;;;;5055282;28;20074;-26
2023/12/20 13:45:18;;;;;;;5.80;2.08;;;;;;;;;;5055106;28;20036;-24
2023/12/20 13:47:44;;;;;;;6.45;2.30;;;;;;;;;;5055019;28;20025;-26
2023/12/20 13:50:10;;;;;;;4.85;1.40;;;;;;;;;;5054980;28;20052;-28
2023/12/20 13:52:37;;;;;;;5.57;1.60;;;;;;;;;;5054898;28;20032;-27
2023/12/20 13:55:05;;;;;;;9.52;1.80;;;;;;;;;;5055228;28;20096;-23
2023/12/20 13:57:31;;;;;;;7.85;1.95;;;;;;;;;;5055423;28;20032;-25
2023/12/20 13:59:57;;;;;;;4.50;1.83;;;;;;;;;;5054876;28;20024;-27
2023/12/20 14:02:24;;;;;;;4.40;1.55;;;;;;;;;;5055112;28;20086;-26
2023/12/20 14:04:50;;;;;;;6.03;2.33;;;;;;;;;;5054636;28;20048;-27
2023/12/20 14:07:16;;;;;;;2.83;1.55;;;;;;;;;;5054884;28;20031;-27
2023/12/20 14:09:45;;;;;;;5.40;2.10;;;;;;;;;;5054667;28;20501;-27
2023/12/20 14:12:11;;;;;;;4.40;1.83;;;;;;;;;;5054920;28;20399;-27
2023/12/20 14:14:38;;;;;;;2.30;1.38;;;;;;;;;;5055483;28;20428;-25
2023/12/20 14:17:06;;;;;;;6.82;2.35;;;;;;;;;;5055385;28;20083;-28
2023/12/20 14:19:32;;;;;;;3.17;1.65;;;;;;;;;;5054615;28;20036;-26
2023/12/20 14:22:03;;;;;;;5.07;2.95;;;;;;;;;;5054495;28;20036;-27
2023/12/20 14:24:29;;;;;;;6.75;2.17;;;;;;;;;;5054897;28;20355;-27
2023/12/20 14:26:55;;;;;;;2.40;1.48;;;;;;;;;;5054434;28;20025;-25
2023/12/20 14:29:21;;;;;;;3.55;1.90;;;;;;;;;;5054391;28;20039;-24
2023/12/20 14:31:49;;;;;;;6.28;2.20;;;;;;;;;;5054136;28;20021;-26
2023/12/20 14:34:16;;;;;;;3.13;1.75;;;;;;;;;;5054475;28;20060;-24
2023/12/20 14:36:43;;;;;;;3.13;2.10;;;;;;;;;;5054677;28;20025;-25
2023/12/20 14:39:12;;;;;;;7.28;2.10;;;;;;;;;;5054373;28;20025;-24
2023/12/20 14:41:40;;;;;;;9.93;2.13;;;;;;;;;;5054069;28;20032;-27